Time;durP1;ratioP1;P1;durP2;ratioP2;P2;SDS_P1;SDS_P2;PMS_P1;PMS_P2;Temp;Humidity;BMP_temperature;BMP_pressure;BME280_temperature;BME280_humidity;BME280_pressure;Samples;Min_cycle;Max_cycle;Signal;HPM_P1;HPM_P2
2022/11/05 00:09:32;;;;;;;14.13;3.50;;;;;;;5.42;100.00;100973.50;4991339;28;20227;-48
2022/11/05 00:17:33;;;;;;;13.77;3.17;;;;;;;5.47;100.00;100979.63;5011884;28;20197;-48
2022/11/05 00:19:58;;;;;;;7.43;3.03;;;;;;;5.41;100.00;100985.03;5009824;28;20222;-48
2022/11/05 00:25:18;;;;;;;10.85;3.00;;;;;;;5.47;100.00;100989.41;5013943;28;20299;-49
2022/11/05 00:27:46;;;;;;;6.63;3.50;;;;;;;5.55;100.00;100992.78;5020866;28;20172;-47
2022/11/05 00:30:15;;;;;;;12.98;3.45;;;;;;;5.40;100.00;100991.28;5005245;28;20587;-48
2022/11/05 00:32:41;;;;;;;14.80;3.13;;;;;;;5.44;100.00;100992.94;5011835;28;20173;-50
2022/11/05 00:35:07;;;;;;;13.68;3.30;;;;;;;5.52;100.00;101000.81;5012474;28;20269;-49
2022/11/05 00:37:33;;;;;;;15.35;3.85;;;;;;;5.48;100.00;101001.78;5014070;28;20199;-49
2022/11/05 00:39:58;;;;;;;12.27;3.33;;;;;;;5.61;100.00;101011.31;5020779;28;20169;-47
2022/11/05 00:45:08;;;;;;;12.35;3.30;;;;;;;5.58;100.00;101014.03;5015960;28;20264;-48
2022/11/05 00:50:35;;;;;;;9.20;2.58;;;;;;;5.45;100.00;101015.13;4970703;28;20204;-48
2022/11/05 00:53:01;;;;;;;12.05;3.03;;;;;;;5.40;100.00;101006.31;5014732;28;20196;-48
2022/11/05 00:55:38;;;;;;;16.83;3.58;;;;;;;5.08;100.00;101024.44;5019934;28;20294;-48
2022/11/05 00:58:15;;;;;;;15.82;2.80;;;;;;;4.92;100.00;101026.41;5015752;28;20650;-48
2022/11/05 01:00:43;;;;;;;9.80;3.17;;;;;;;4.86;100.00;101021.16;5019542;28;20571;-47
2022/11/05 01:03:11;;;;;;;17.35;3.22;;;;;;;4.91;100.00;101027.28;5016068;28;20188;-50
2022/11/05 01:05:43;;;;;;;9.65;3.63;;;;;;;4.96;100.00;101021.91;5004136;28;20212;-48
2022/11/05 01:08:10;;;;;;;8.27;2.95;;;;;;;4.99;100.00;101031.66;5014377;28;20270;-47
2022/11/05 01:10:43;;;;;;;10.45;2.80;;;;;;;4.98;100.00;101035.19;5018228;28;20184;-48
2022/11/05 01:13:09;;;;;;;11.07;3.30;;;;;;;4.92;100.00;101023.75;5014545;28;20231;-48
2022/11/05 01:15:36;;;;;;;10.02;2.60;;;;;;;4.91;100.00;101034.38;5022600;28;20204;-47
2022/11/05 01:18:02;;;;;;;11.98;3.58;;;;;;;4.97;100.00;101036.09;5018734;28;20226;-47
2022/11/05 01:20:28;;;;;;;9.95;2.90;;;;;;;5.05;100.00;101032.47;5020167;28;20264;-48
2022/11/05 01:22:53;;;;;;;13.30;2.75;;;;;;;5.02;100.00;101031.59;5012670;28;20728;-49
2022/11/05 01:25:18;;;;;;;11.57;3.63;;;;;;;4.91;100.00;101037.03;5014897;28;20234;-48
2022/11/05 01:27:44;;;;;;;15.80;3.47;;;;;;;4.83;100.00;101037.16;5020479;28;20286;-47
2022/11/05 01:30:10;;;;;;;8.55;3.05;;;;;;;4.72;100.00;101039.00;5000454;28;20570;-47
2022/11/05 01:32:36;;;;;;;7.35;2.65;;;;;;;4.77;100.00;101046.91;5013701;28;20187;-47
2022/11/05 01:35:04;;;;;;;7.68;2.92;;;;;;;4.77;100.00;101053.13;5015324;28;20719;-48
2022/11/05 01:37:29;;;;;;;9.77;2.70;;;;;;;4.73;100.00;101048.75;5013418;28;20203;-47
2022/11/05 01:39:55;;;;;;;10.63;3.20;;;;;;;4.49;100.00;101036.59;5015411;28;20169;-48
2022/11/05 01:42:23;;;;;;;13.07;3.60;;;;;;;4.46;100.00;101037.53;5018085;28;20252;-47
2022/11/05 01:44:58;;;;;;;10.15;3.25;;;;;;;4.43;100.00;101029.56;5011020;28;20220;-47
2022/11/05 01:47:23;;;;;;;13.27;3.65;;;;;;;4.36;100.00;101037.63;5012639;28;20286;-48
2022/11/05 01:49:49;;;;;;;12.77;3.55;;;;;;;4.23;100.00;101028.91;5020336;28;20292;-49
2022/11/05 01:52:14;;;;;;;9.85;3.58;;;;;;;4.27;100.00;101036.81;5021682;28;20179;-48
2022/11/05 01:54:40;;;;;;;9.95;3.20;;;;;;;4.32;100.00;101036.75;5021959;28;20205;-49
2022/11/05 01:57:09;;;;;;;12.68;3.63;;;;;;;4.29;100.00;101039.44;5017862;28;20196;-49
2022/11/05 01:59:43;;;;;;;8.25;3.70;;;;;;;4.26;100.00;101031.50;5024984;28;20168;-48
2022/11/05 02:02:09;;;;;;;14.00;3.60;;;;;;;4.35;100.00;101034.06;5016969;28;20202;-49
2022/11/05 02:04:52;;;;;;;5.07;2.70;;;;;;;4.42;100.00;101029.63;5018699;28;20219;-48
2022/11/05 02:07:19;;;;;;;11.75;3.05;;;;;;;4.42;100.00;101046.41;5020303;28;20195;-46
2022/11/05 02:09:57;;;;;;;14.20;3.53;;;;;;;4.36;100.00;101043.81;5025948;28;20266;-49
2022/11/05 02:12:23;;;;;;;9.15;3.30;;;;;;;4.33;100.00;101042.06;5015976;28;20205;-48
2022/11/05 02:14:49;;;;;;;10.30;3.15;;;;;;;4.30;100.00;101039.41;5011926;28;20208;-49
2022/11/05 02:17:44;;;;;;;9.23;3.38;;;;;;;4.38;100.00;101049.09;5011109;28;20189;-47
2022/11/05 02:20:32;;;;;;;8.23;3.60;;;;;;;4.24;100.00;101041.25;5010552;28;20677;-48
2022/11/05 02:23:34;;;;;;;13.13;3.15;;;;;;;4.22;100.00;101054.53;5013795;28;20558;-49
2022/11/05 02:26:16;;;;;;;9.65;3.38;;;;;;;4.19;100.00;101053.69;5017298;28;20200;-49
2022/11/05 02:29:07;;;;;;;6.47;3.38;;;;;;;4.22;100.00;101043.03;5017084;28;20276;-49
2022/11/05 02:32:01;;;;;;;9.32;3.35;;;;;;;4.24;100.00;101042.16;5010954;28;20238;-48
2022/11/05 02:35:05;;;;;;;11.88;2.97;;;;;;;4.34;100.00;101034.97;5014937;28;20215;-47
2022/11/05 02:37:49;;;;;;;12.68;3.30;;;;;;;4.15;100.00;101033.38;4949895;29;20205;-49
2022/11/05 02:40:44;;;;;;;9.07;3.15;;;;;;;4.25;100.00;101032.41;4949654;29;20179;-48
2022/11/05 02:43:21;;;;;;;14.70;3.80;;;;;;;4.16;100.00;101030.72;4986723;28;20189;-48
2022/11/05 02:46:02;;;;;;;7.30;2.80;;;;;;;4.27;100.00;101038.59;5011848;28;20200;-49
2022/11/05 02:48:54;;;;;;;10.43;2.70;;;;;;;4.21;100.00;101036.84;5011409;28;20609;-52
2022/11/05 02:51:38;;;;;;;6.63;2.20;;;;;;;4.36;100.00;101045.59;5011142;28;20199;-48
2022/11/05 02:54:06;;;;;;;8.25;2.53;;;;;;;4.37;100.00;101050.84;5016643;28;20176;-47
2022/11/05 02:56:38;;;;;;;9.13;2.60;;;;;;;4.36;100.00;101041.16;5017244;28;20198;-49
2022/11/05 02:59:03;;;;;;;12.73;3.13;;;;;;;4.29;100.00;101044.75;5009237;28;20177;-47
2022/11/05 03:01:29;;;;;;;5.70;2.22;;;;;;;4.44;100.00;101049.00;5011758;28;20322;-48
2022/11/05 03:04:00;;;;;;;11.55;3.00;;;;;;;4.34;100.00;101048.25;5014349;28;20192;-48
2022/11/05 03:06:42;;;;;;;11.57;2.75;;;;;;;4.30;100.00;101038.53;5009988;28;20573;-48
2022/11/05 03:09:29;;;;;;;8.18;2.65;;;;;;;4.30;100.00;101051.81;5028487;28;20287;-47
2022/11/05 03:12:00;;;;;;;5.05;2.20;;;;;;;4.29;100.00;101039.44;5013666;28;20602;-48
2022/11/05 03:14:35;;;;;;;7.93;2.60;;;;;;;4.37;100.00;101053.50;5019054;28;20212;-48
2022/11/05 03:17:06;;;;;;;10.18;2.30;;;;;;;4.46;100.00;101053.44;5016671;28;20199;-50
2022/11/05 03:19:31;;;;;;;10.10;3.10;;;;;;;4.24;100.00;101059.81;5018741;28;20176;-49
2022/11/05 03:22:03;;;;;;;8.68;3.15;;;;;;;4.18;100.00;101066.06;5017831;28;20571;-48
2022/11/05 03:24:35;;;;;;;6.28;2.78;;;;;;;4.14;100.00;101061.69;5000848;28;20212;-50
2022/11/05 03:27:14;;;;;;;7.05;3.13;;;;;;;4.26;100.00;101063.34;5011164;28;20228;-48
2022/11/05 03:29:47;;;;;;;10.38;3.75;;;;;;;4.10;100.00;101070.53;5017825;28;20214;-48
2022/11/05 03:32:16;;;;;;;8.25;3.47;;;;;;;4.16;100.00;101070.50;5017761;28;20625;-50
2022/11/05 03:34:46;;;;;;;9.52;2.70;;;;;;;4.18;100.00;101065.19;5019851;28;20200;-49
2022/11/05 03:37:13;;;;;;;10.73;3.33;;;;;;;4.00;100.00;101068.84;5024469;28;20180;-49
2022/11/05 03:39:43;;;;;;;9.63;3.42;;;;;;;4.02;100.00;101062.63;5025092;28;20180;-49
2022/11/05 03:42:14;;;;;;;7.95;2.80;;;;;;;4.08;100.00;101067.03;5011222;28;20189;-48
2022/11/05 03:44:46;;;;;;;7.05;2.80;;;;;;;3.91;100.00;101073.34;5011819;28;20578;-48
2022/11/05 03:47:21;;;;;;;10.32;3.28;;;;;;;3.95;100.00;101074.19;5009162;28;20270;-49
2022/11/05 03:50:04;;;;;;;8.93;3.05;;;;;;;3.98;100.00;101070.63;5017935;28;20192;-51
2022/11/05 03:52:36;;;;;;;9.57;3.40;;;;;;;3.82;100.00;101067.22;5013751;28;20184;-47
2022/11/05 03:55:02;;;;;;;7.07;2.85;;;;;;;3.89;100.00;101064.53;5013326;28;20755;-48
2022/11/05 03:57:33;;;;;;;6.13;2.70;;;;;;;3.87;100.00;101076.91;5014883;28;20180;-48
2022/11/05 03:59:59;;;;;;;9.68;3.60;;;;;;;3.92;100.00;101074.22;5021327;28;20199;-48
2022/11/05 04:02:25;;;;;;;10.43;3.47;;;;;;;3.89;100.00;101071.56;5014537;28;20596;-48
2022/11/05 04:04:51;;;;;;;12.82;3.80;;;;;;;3.94;100.00;101080.38;5010970;28;20245;-49
2022/11/05 04:17:05;;;;;;;13.65;3.75;;;;;;;4.00;100.00;101095.34;5018302;28;20200;-48
2022/11/05 04:18:15;;;;;;;8.57;4.05;;;;;;;4.11;100.00;101110.31;5013945;28;20196;-49
2022/11/05 04:26:26;;;;;;;14.27;4.90;;;;;;;4.31;100.00;101111.94;4982351;28;20541;-49
2022/11/05 04:31:36;;;;;;;15.80;5.47;;;;;;;4.37;100.00;101095.06;5011200;28;20184;-49
2022/11/05 04:34:02;;;;;;;12.68;5.78;;;;;;;4.46;100.00;101097.63;5018519;28;20257;-50
2022/11/05 04:36:28;;;;;;;17.73;6.80;;;;;;;4.43;100.00;101110.94;5017500;28;20219;-48
2022/11/05 04:38:53;;;;;;;15.73;5.88;;;;;;;4.53;100.00;101099.38;5016946;28;20649;-49
2022/11/05 04:41:19;;;;;;;12.68;6.05;;;;;;;4.60;100.00;101108.16;5024161;28;20215;-50
2022/11/05 04:43:44;;;;;;;11.75;5.90;;;;;;;4.52;100.00;101111.72;5016459;28;20267;-48
2022/11/05 04:46:10;;;;;;;15.20;6.38;;;;;;;4.55;100.00;101113.50;5020223;28;20657;-50
2022/11/05 04:48:36;;;;;;;16.50;6.40;;;;;;;4.54;100.00;101122.34;5017997;28;20200;-47
2022/11/05 04:51:02;;;;;;;18.88;6.70;;;;;;;4.63;100.00;101113.41;5015021;28;20195;-49
2022/11/05 04:53:28;;;;;;;11.15;6.00;;;;;;;4.62;100.00;101122.28;5024828;28;20184;-48
2022/11/05 04:55:53;;;;;;;16.60;6.80;;;;;;;4.64;100.00;101112.53;5017199;28;20575;-47
2022/11/05 04:58:19;;;;;;;13.38;6.72;;;;;;;4.75;100.00;101122.16;5015348;28;20184;-49
2022/11/05 05:00:44;;;;;;;15.50;6.72;;;;;;;4.75;100.00;101118.63;5012486;28;20685;-50
2022/11/05 05:03:10;;;;;;;13.75;7.28;;;;;;;4.75;100.00;101124.81;5013151;28;20180;-48
2022/11/05 05:05:35;;;;;;;20.27;7.32;;;;;;;4.69;100.00;101134.59;5013520;28;20227;-49
2022/11/05 05:08:02;;;;;;;12.77;6.65;;;;;;;4.73;100.00;101121.28;5015162;28;20231;-47
2022/11/05 05:10:28;;;;;;;17.90;7.53;;;;;;;4.77;100.00;101123.91;5017356;28;20200;-51
2022/11/05 05:12:53;;;;;;;13.73;6.95;;;;;;;4.88;100.00;101114.06;5016634;28;20188;-50
2022/11/05 05:15:19;;;;;;;17.77;7.30;;;;;;;4.86;100.00;101121.16;5011673;28;20211;-49
2022/11/05 05:17:50;;;;;;;16.23;7.53;;;;;;;5.03;100.00;101123.63;5013888;28;20649;-49
2022/11/05 05:22:59;;;;;;;17.42;6.55;;;;;;;5.04;100.00;101125.41;5013850;28;20227;-50
2022/11/05 05:25:25;;;;;;;16.45;6.65;;;;;;;5.08;100.00;101124.47;5016566;28;20200;-49
2022/11/05 05:27:50;;;;;;;14.73;6.53;;;;;;;5.03;100.00;101123.63;5019618;28;20188;-50
2022/11/05 05:30:16;;;;;;;20.02;7.13;;;;;;;5.09;100.00;101128.88;5015271;28;20642;-47
2022/11/05 05:32:41;;;;;;;20.02;7.53;;;;;;;5.09;100.00;101135.06;5017331;28;20189;-48
2022/11/05 05:35:07;;;;;;;18.20;7.32;;;;;;;5.09;100.00;101132.41;5014094;28;20197;-47
2022/11/05 05:37:33;;;;;;;15.82;6.55;;;;;;;5.13;100.00;101127.97;5013123;28;20258;-49
2022/11/05 05:39:58;;;;;;;16.63;6.35;;;;;;;5.13;100.00;101136.78;5020189;28;20180;-47
2022/11/05 05:42:23;;;;;;;17.80;6.68;;;;;;;5.19;100.00;101132.34;5017266;28;20187;-48
2022/11/05 05:44:49;;;;;;;16.67;6.13;;;;;;;5.19;100.00;101138.53;5013261;28;20204;-48
2022/11/05 05:47:14;;;;;;;18.50;7.05;;;;;;;5.18;100.00;101139.41;5017251;28;20266;-48
2022/11/05 05:49:40;;;;;;;18.23;6.28;;;;;;;5.19;100.00;101130.56;5014519;28;20801;-48
2022/11/05 05:52:05;;;;;;;23.40;6.63;;;;;;;5.26;100.00;101131.34;5015973;28;20653;-47
2022/11/05 05:54:31;;;;;;;12.93;6.30;;;;;;;5.29;100.00;101141.94;5025062;28;20188;-50
2022/11/05 05:56:56;;;;;;;21.38;6.00;;;;;;;5.23;100.00;101145.56;5021790;28;20207;-48
2022/11/05 05:59:22;;;;;;;14.00;5.50;;;;;;;5.24;100.00;101141.13;5022350;28;20552;-48
2022/11/05 06:01:48;;;;;;;14.63;5.63;;;;;;;5.23;100.00;101136.72;5015087;28;20180;-46
2022/11/05 06:04:14;;;;;;;14.80;5.00;;;;;;;5.25;100.00;101140.25;5014610;28;20200;-48
2022/11/05 06:06:39;;;;;;;16.88;5.65;;;;;;;5.18;100.00;101142.06;5017426;28;20184;-48
2022/11/05 06:09:05;;;;;;;15.80;5.68;;;;;;;5.21;100.00;101138.50;5009967;28;20267;-47
2022/11/05 06:11:30;;;;;;;14.23;5.70;;;;;;;5.30;100.00;101147.25;5015962;28;20177;-47
2022/11/05 06:13:56;;;;;;;13.25;4.85;;;;;;;5.25;100.00;101146.44;5016769;28;20298;-48
2022/11/05 06:16:22;;;;;;;12.95;4.80;;;;;;;5.27;100.00;101147.28;5014220;28;20606;-48
2022/11/05 06:18:48;;;;;;;13.13;4.50;;;;;;;5.24;100.00;101152.63;5015856;28;20271;-48
2022/11/05 06:21:15;;;;;;;11.93;5.13;;;;;;;5.20;100.00;101150.88;5022229;28;20667;-48
2022/11/05 06:23:43;;;;;;;13.32;5.07;;;;;;;5.25;100.00;101143.78;5011536;28;20177;-49
2022/11/05 06:26:11;;;;;;;12.95;5.90;;;;;;;5.18;100.00;101152.69;5018899;28;20284;-49
2022/11/05 06:28:37;;;;;;;11.82;4.55;;;;;;;5.22;100.00;101162.38;5011976;28;20268;-49
2022/11/05 06:31:03;;;;;;;14.45;4.70;;;;;;;5.17;100.00;101158.91;5014968;28;20668;-48
2022/11/05 06:33:28;;;;;;;11.10;4.18;;;;;;;5.17;100.00;101169.53;5019945;28;20203;-47
2022/11/05 06:35:57;;;;;;;13.48;4.68;;;;;;;5.20;100.00;101180.09;5013844;28;20641;-48
2022/11/05 06:38:23;;;;;;;17.27;5.30;;;;;;;5.13;100.00;101167.78;5016482;28;20307;-50
2022/11/05 06:40:48;;;;;;;11.98;4.45;;;;;;;5.14;100.00;101181.06;5018771;28;20267;-48
2022/11/05 06:43:14;;;;;;;14.50;4.35;;;;;;;5.16;100.00;101173.97;5020410;28;20172;-50
2022/11/05 06:45:39;;;;;;;9.73;4.85;;;;;;;5.20;100.00;101185.41;5009813;28;20200;-49
2022/11/05 06:48:05;;;;;;;11.10;4.40;;;;;;;5.19;100.00;101172.19;5011305;28;20275;-48
2022/11/05 06:50:31;;;;;;;8.15;4.18;;;;;;;5.23;100.00;101184.53;5012216;28;20196;-48
2022/11/05 06:52:58;;;;;;;16.08;4.68;;;;;;;5.21;100.00;101187.19;5007023;28;20276;-49
2022/11/05 06:55:25;;;;;;;10.80;4.40;;;;;;;5.23;100.00;101179.22;5009187;28;20688;-50
2022/11/05 06:57:51;;;;;;;11.50;4.72;;;;;;;5.24;100.00;101187.16;5011636;28;20275;-48
2022/11/05 07:00:17;;;;;;;9.40;4.47;;;;;;;5.31;100.00;101190.63;5021513;28;20718;-49
2022/11/05 07:02:44;;;;;;;13.68;4.25;;;;;;;5.29;100.00;101201.28;5010865;28;20204;-48
2022/11/05 07:05:12;;;;;;;14.38;4.75;;;;;;;5.35;100.00;101210.94;5010093;28;20284;-48
2022/11/05 07:07:39;;;;;;;10.38;4.32;;;;;;;5.29;100.00;101205.69;5018730;28;20177;-50
2022/11/05 07:10:06;;;;;;;15.98;4.43;;;;;;;5.28;100.00;101203.94;5012368;28;20204;-48
2022/11/05 07:12:32;;;;;;;14.65;4.57;;;;;;;5.37;100.00;101210.03;5014185;28;20188;-46
2022/11/05 07:14:57;;;;;;;13.65;5.22;;;;;;;5.39;100.00;101207.38;5013948;28;20254;-48
2022/11/05 07:17:23;;;;;;;17.95;5.07;;;;;;;5.35;100.00;101206.50;5021540;28;20654;-49
2022/11/05 07:19:48;;;;;;;9.77;4.82;;;;;;;5.45;100.00;101211.75;5014189;28;20634;-48
2022/11/05 07:22:14;;;;;;;15.52;4.72;;;;;;;5.37;100.00;101209.16;5013436;28;20175;-48
2022/11/05 07:24:41;;;;;;;12.35;4.47;;;;;;;5.45;100.00;101206.44;5009853;28;20685;-48
2022/11/05 07:27:06;;;;;;;11.15;4.85;;;;;;;5.50;100.00;101212.56;5014329;28;20184;-50
2022/11/05 07:29:32;;;;;;;12.13;4.32;;;;;;;5.53;100.00;101209.88;5012288;28;20298;-49
2022/11/05 07:31:57;;;;;;;11.52;4.80;;;;;;;5.54;100.00;101214.31;5009967;28;20668;-48
2022/11/05 07:34:24;;;;;;;15.13;4.30;;;;;;;5.54;100.00;101214.31;5008562;28;20760;-49
2022/11/05 07:36:49;;;;;;;9.88;4.63;;;;;;;5.61;100.00;101212.44;5010331;28;20271;-47
2022/11/05 07:39:15;;;;;;;11.63;4.63;;;;;;;5.59;100.00;101215.13;5012430;28;20259;-48
2022/11/05 07:41:40;;;;;;;17.27;4.43;;;;;;;5.64;100.00;101223.94;4997654;28;20193;-50
2022/11/05 07:44:06;;;;;;;14.45;4.40;;;;;;;5.67;100.00;101215.91;5011909;28;20205;-47
2022/11/05 07:46:31;;;;;;;12.27;4.13;;;;;;;5.73;100.00;101212.31;5011783;28;20189;-49
2022/11/05 07:48:57;;;;;;;12.18;3.95;;;;;;;5.76;100.00;101213.13;5012195;28;20196;-47
2022/11/05 07:51:22;;;;;;;10.15;4.50;;;;;;;5.81;100.00;101212.22;5012415;28;20207;-49
2022/11/05 07:53:48;;;;;;;9.05;4.13;;;;;;;5.82;100.00;101211.31;5014839;28;20545;-50
2022/11/05 07:56:14;;;;;;;15.57;4.25;;;;;;;5.85;100.00;101224.56;5008122;28;20208;-50
2022/11/05 07:58:40;;;;;;;11.63;4.03;;;;;;;5.91;100.00;101219.19;5010050;28;20188;-50
2022/11/05 08:01:06;;;;;;;9.52;4.43;;;;;;;5.90;100.00;101225.38;5019292;28;20203;-50
2022/11/05 08:03:32;;;;;;;10.35;3.78;;;;;;;5.99;100.00;101230.59;5011369;28;20176;-48
2022/11/05 08:05:57;;;;;;;11.45;4.10;;;;;;;6.09;100.00;101234.03;5010556;28;20909;-49
2022/11/05 08:08:23;;;;;;;10.35;4.00;;;;;;;6.36;100.00;101230.09;5010260;28;20184;-49
2022/11/05 08:10:48;;;;;;;8.98;3.63;;;;;;;6.39;100.00;101230.09;5009664;28;20204;-49
2022/11/05 08:13:15;;;;;;;12.68;4.40;;;;;;;6.42;100.00;101230.03;5024556;28;20188;-49
2022/11/05 08:15:41;;;;;;;7.53;3.42;;;;;;;6.64;100.00;101229.72;5016171;28;20216;-49
2022/11/05 08:18:10;;;;;;;13.43;3.70;;;;;;;6.71;100.00;101228.69;5010135;28;20629;-50
2022/11/05 08:20:37;;;;;;;13.23;3.92;;;;;;;6.83;100.00;101236.50;5009374;28;20185;-49
2022/11/05 08:23:03;;;;;;;6.47;2.90;;;;;;;7.05;100.00;101225.50;5016523;28;20181;-49
2022/11/05 08:25:29;;;;;;;10.93;3.35;;;;;;;7.32;100.00;101237.44;5011557;28;20556;-49
2022/11/05 08:28:00;;;;;;;7.95;3.80;;;;;;;7.26;100.00;101237.53;5018630;28;20184;-48
2022/11/05 08:30:27;;;;;;;6.82;2.70;;;;;;;7.28;100.00;101235.72;5011679;28;20243;-46
2022/11/05 08:33:07;;;;;;;5.35;2.40;;;;;;;7.51;100.00;101222.00;5016783;28;20546;-49
2022/11/05 08:35:34;;;;;;;9.50;3.25;;;;;;;7.65;100.00;101225.25;5010174;28;20719;-47
2022/11/05 08:38:02;;;;;;;12.00;3.03;;;;;;;7.69;100.00;101213.63;5013463;28;20235;-48
2022/11/05 08:40:29;;;;;;;12.23;2.83;;;;;;;7.74;100.00;101213.50;5012546;28;20201;-47
2022/11/05 08:42:59;;;;;;;6.25;2.88;;;;;;;7.86;100.00;101221.28;5010120;28;20235;-48
2022/11/05 08:45:26;;;;;;;9.45;2.80;;;;;;;7.89;100.00;101209.66;5011904;28;20506;-49
2022/11/05 08:48:05;;;;;;;9.20;2.22;;;;;;;7.90;100.00;101206.97;5000996;28;20185;-49
2022/11/05 08:50:31;;;;;;;9.20;2.72;;;;;;;7.98;100.00;101210.34;5009370;28;20218;-48
2022/11/05 08:52:57;;;;;;;7.45;2.33;;;;;;;7.98;100.00;101213.03;5010584;28;20188;-49
2022/11/05 08:55:23;;;;;;;9.70;2.58;;;;;;;7.99;100.00;101212.09;5013656;28;20585;-48
2022/11/05 08:57:55;;;;;;;5.93;2.30;;;;;;;8.08;100.00;101213.69;5009765;28;20179;-48
2022/11/05 09:00:20;;;;;;;12.70;3.03;;;;;;;8.18;100.00;101219.72;5022226;28;20180;-51
2022/11/05 09:02:46;;;;;;;8.52;2.45;;;;;;;8.24;100.00;101217.78;5023133;28;20332;-48
2022/11/05 09:05:11;;;;;;;7.00;2.00;;;;;;;8.34;100.00;101222.91;5012541;28;20298;-47
2022/11/05 09:07:36;;;;;;;5.35;1.77;;;;;;;8.31;100.00;101214.97;5015403;28;20195;-49
2022/11/05 09:10:02;;;;;;;8.60;2.30;;;;;;;8.20;100.00;101216.09;5015073;28;20219;-50
2022/11/05 09:12:27;;;;;;;4.57;2.17;;;;;;;8.36;100.00;101227.31;5014791;28;20658;-48
2022/11/05 09:14:53;;;;;;;7.88;2.30;;;;;;;8.54;100.00;101225.16;5011574;28;20220;-49
2022/11/05 09:17:20;;;;;;;9.43;2.45;;;;;;;8.46;100.00;101225.31;5016226;28;20176;-49
2022/11/05 09:19:46;;;;;;;6.40;2.53;;;;;;;8.58;100.00;101221.50;5019143;28;20212;-48
2022/11/05 09:22:12;;;;;;;7.65;2.90;;;;;;;8.75;100.00;101221.97;5019296;28;20200;-48
2022/11/05 09:24:38;;;;;;;5.22;2.10;;;;;;;8.73;100.00;101218.47;5015278;28;20199;-51
2022/11/05 09:27:05;;;;;;;8.20;2.45;;;;;;;8.82;100.00;101226.25;5025054;28;20215;-46
2022/11/05 09:29:30;;;;;;;11.07;2.42;;;;;;;8.80;100.00;101225.41;5018265;28;20824;-49
2022/11/05 09:31:55;;;;;;;6.03;2.33;;;;;;;8.96;100.00;101217.88;5018903;28;20208;-49
2022/11/05 09:34:22;;;;;;;4.28;2.22;;;;;;;9.04;100.00;101225.72;5016968;28;20200;-51
2022/11/05 09:36:47;;;;;;;6.75;2.03;;;;;;;9.18;100.00;101212.88;5019703;28;20210;-50
2022/11/05 09:39:13;;;;;;;9.25;2.78;;;;;;;9.16;100.00;101220.06;5026283;28;20788;-48
2022/11/05 09:41:40;;;;;;;6.88;2.08;;;;;;;9.22;100.00;101230.56;5019954;28;20259;-48
2022/11/05 09:44:16;;;;;;;7.68;2.10;;;;;;;9.37;100.00;101231.09;5016533;28;20219;-49
2022/11/05 09:46:45;;;;;;;6.10;2.10;;;;;;;9.33;100.00;101232.97;5015683;28;20621;-49
2022/11/05 09:49:28;;;;;;;4.53;1.75;;;;;;;9.64;100.00;101227.69;5016997;28;20200;-51
2022/11/05 09:51:56;;;;;;;6.72;2.17;;;;;;;9.87;100.00;101218.09;5031050;28;20426;-49
2022/11/05 09:54:27;;;;;;;4.50;1.70;;;;;;;9.98;100.00;101229.38;5054575;23;20231;-46
2022/11/05 09:56:54;;;;;;;8.32;2.35;;;;;;;10.44;100.00;101214.63;5010464;28;20169;-50
2022/11/05 09:59:38;;;;;;;6.28;1.65;;;;;;;10.29;100.00;101224.00;5010538;28;20259;-48
2022/11/05 10:02:24;;;;;;;5.93;1.55;;;;;;;10.53;100.00;101218.81;5009647;28;20207;-48
2022/11/05 10:04:54;;;;;;;5.13;1.85;;;;;;;10.19;100.00;101224.28;5009678;28;20196;-48
2022/11/05 10:07:24;;;;;;;5.22;1.27;;;;;;;10.14;100.00;101227.13;5011034;28;20242;-48
2022/11/05 10:09:58;;;;;;;3.78;1.50;;;;;;;9.92;100.00;101226.00;5009961;28;20200;-47
2022/11/05 10:12:30;;;;;;;5.70;1.30;;;;;;;9.55;100.00;101237.75;5010730;28;20543;-48
2022/11/05 10:15:02;;;;;;;4.30;1.40;;;;;;;9.53;100.00;101245.81;5009697;28;20196;-48
2022/11/05 10:17:31;;;;;;;6.30;1.30;;;;;;;9.42;100.00;101237.19;5010386;28;20192;-47
2022/11/05 10:19:59;;;;;;;11.45;1.52;;;;;;;9.26;100.00;101236.72;4991330;28;20259;-49
2022/11/05 10:22:25;;;;;;;5.15;1.35;;;;;;;9.35;100.00;101247.19;5009989;28;20189;-48
2022/11/05 10:24:52;;;;;;;5.82;1.38;;;;;;;9.40;100.00;101247.06;5010062;28;20343;-46
2022/11/05 10:27:31;;;;;;;1.63;1.05;;;;;;;9.32;100.00;101251.75;5009925;28;20234;-48
2022/11/05 10:29:57;;;;;;;7.45;1.35;;;;;;;9.53;100.00;101236.91;5010153;28;20208;-49
2022/11/05 10:32:36;;;;;;;5.88;1.30;;;;;;;9.71;100.00;101241.75;5010270;28;20184;-48
2022/11/05 10:35:05;;;;;;;8.25;1.40;;;;;;;10.08;100.00;101238.91;5009304;28;20269;-48
2022/11/05 10:37:32;;;;;;;5.30;1.23;;;;;;;10.11;100.00;101229.91;5006474;28;20168;-49
2022/11/05 10:39:58;;;;;;;4.90;1.63;;;;;;;10.21;100.00;101236.75;5008081;28;20173;-47
2022/11/05 10:42:49;;;;;;;10.70;2.50;;;;;;;10.16;100.00;101230.63;5008041;28;20189;-46
2022/11/05 10:45:27;;;;;;;7.82;2.22;;;;;;;10.23;100.00;101237.56;5004366;28;20220;-48
2022/11/05 10:48:10;;;;;;;6.25;2.05;;;;;;;10.23;100.00;101240.25;5010077;28;20207;-47
2022/11/05 10:50:38;;;;;;;7.22;2.63;;;;;;;10.32;100.00;101236.44;5009660;28;20223;-47
2022/11/05 10:53:11;;;;;;;4.65;1.73;;;;;;;10.56;100.00;101242.84;5009914;28;20192;-49
2022/11/05 10:55:42;;;;;;;3.55;1.60;;;;;;;10.08;100.00;101235.34;5009650;28;20299;-47
2022/11/05 10:58:20;;;;;;;3.70;1.60;;;;;;;10.08;100.00;101246.06;5009766;28;20196;-48
2022/11/05 11:00:48;;;;;;;6.25;2.03;;;;;;;10.06;100.00;101246.09;5008773;28;20848;-48
2022/11/05 11:03:40;;;;;;;9.10;1.80;;;;;;;10.09;100.00;101254.03;5009543;28;20195;-48
2022/11/05 11:06:18;;;;;;;5.78;1.55;;;;;;;10.02;100.00;101247.09;5008951;28;20647;-49
2022/11/05 11:08:46;;;;;;;7.80;1.83;;;;;;;10.19;100.00;101256.44;5008077;28;20234;-47
2022/11/05 11:11:24;;;;;;;6.63;1.80;;;;;;;10.14;100.00;101255.69;5008976;28;20242;-48
2022/11/05 11:13:55;;;;;;;6.15;1.92;;;;;;;10.20;100.00;101251.03;5007200;28;20172;-48
2022/11/05 11:16:26;;;;;;;5.07;1.20;;;;;;;10.21;100.00;101254.59;5007483;28;20250;-48
2022/11/05 11:18:59;;;;;;;5.05;1.77;;;;;;;10.19;100.00;101248.38;5009518;28;20231;-48
2022/11/05 11:21:27;;;;;;;4.75;1.70;;;;;;;10.20;100.00;101261.75;5009401;28;20177;-48
2022/11/05 11:23:56;;;;;;;4.88;1.67;;;;;;;10.21;100.00;101242.09;5008716;28;20243;-48
2022/11/05 11:26:24;;;;;;;8.45;1.80;;;;;;;10.30;100.00;101246.31;5009297;28;20208;-49
2022/11/05 11:28:54;;;;;;;5.65;1.65;;;;;;;10.43;100.00;101249.47;5008879;28;20675;-49
2022/11/05 11:31:22;;;;;;;4.35;1.75;;;;;;;10.61;100.00;101245.38;5009349;28;20272;-49
2022/11/05 11:33:58;;;;;;;5.20;1.77;;;;;;;10.60;100.00;101244.47;5008750;28;20656;-49
2022/11/05 11:36:37;;;;;;;5.97;1.80;;;;;;;10.86;100.00;101248.13;5008217;28;20269;-48
2022/11/05 11:39:05;;;;;;;4.47;1.40;;;;;;;10.81;100.00;101239.38;5009021;28;20499;-48
2022/11/05 11:41:38;;;;;;;2.75;1.00;;;;;;;10.90;100.00;101239.94;5008279;28;20184;-48
2022/11/05 11:44:31;;;;;;;5.38;1.67;;;;;;;10.99;100.00;101244.09;5006519;28;20176;-48
2022/11/05 11:47:02;;;;;;;5.40;1.50;;;;;;;11.04;100.00;101243.94;5002990;28;20371;-47
2022/11/05 11:49:52;;;;;;;6.28;2.10;;;;;;;11.17;100.00;101249.78;5006130;28;20695;-48
2022/11/05 11:52:27;;;;;;;4.82;1.30;;;;;;;11.07;100.00;101239.38;5007696;28;20224;-48
2022/11/05 11:55:05;;;;;;;4.10;1.60;;;;;;;10.88;99.50;101239.09;5006226;28;20207;-48
2022/11/05 11:57:43;;;;;;;3.60;1.40;;;;;;;11.06;99.57;101234.97;5008845;28;20195;-49
2022/11/05 12:00:09;;;;;;;3.38;1.50;;;;;;;11.11;99.01;101242.84;5006143;28;20175;-48
2022/11/05 12:03:09;;;;;;;1.45;1.08;;;;;;;11.13;98.56;101247.22;5008839;28;20250;-48
2022/11/05 12:05:51;;;;;;;3.42;1.35;;;;;;;11.29;98.71;101227.91;5008213;28;20686;-47
2022/11/05 12:08:29;;;;;;;2.05;1.05;;;;;;;11.28;97.72;101229.72;5005169;28;20197;-48
2022/11/05 12:11:00;;;;;;;4.10;1.40;;;;;;;11.08;97.46;101245.59;5008210;28;20680;-46
2022/11/05 12:13:40;;;;;;;5.93;1.63;;;;;;;11.21;97.39;101240.72;5007725;28;20207;-47